Time;durP1;ratioP1;P1;durP2;ratioP2;P2;SDS_P1;SDS_P2;PMS_P1;PMS_P2;Temp;Humidity;BMP_temperature;BMP_pressure;BME280_temperature;BME280_humidity;BME280_pressure;Samples;Min_cycle;Max_cycle;Signal;HPM_P1;HPM_P2
2023/10/17 00:02:24;;;;;;;48.77;19.63;;;;;;;2.52;98.70;100606.97;4218214;28;20227;-72
2023/10/17 00:04:51;;;;;;;29.43;12.57;;;;;;;2.46;98.82;100600.16;4213289;28;20240;-71
2023/10/17 00:07:20;;;;;;;27.50;11.63;;;;;;;2.47;98.70;100599.22;4201243;28;25025;-73
2023/10/17 00:09:48;;;;;;;29.97;12.07;;;;;;;2.51;98.77;100600.78;4213676;28;20291;-70
2023/10/17 00:14:45;;;;;;;32.77;12.60;;;;;;;2.38;98.66;100599.75;4204856;28;21201;-70
2023/10/17 00:17:16;;;;;;;29.97;11.50;;;;;;;2.37;98.90;100600.75;4211038;28;20233;-70
2023/10/17 00:19:44;;;;;;;21.10;10.70;;;;;;;2.36;98.80;100599.84;4215760;28;20389;-71
2023/10/17 00:22:23;;;;;;;28.83;11.77;;;;;;;2.40;98.50;100605.03;4230307;28;20232;-72
2023/10/17 00:25:09;;;;;;;29.80;11.07;;;;;;;2.36;98.43;100599.84;4220836;28;20235;-73
2023/10/17 00:27:35;;;;;;;26.00;10.93;;;;;;;2.29;98.48;100601.19;4211721;28;20621;-70
2023/10/17 00:30:03;;;;;;;25.77;10.60;;;;;;;2.26;98.85;100603.16;4215627;28;20231;-69
2023/10/17 00:32:31;;;;;;;25.87;10.07;;;;;;;2.20;99.10;100601.72;4211427;28;20240;-69
2023/10/17 00:34:58;;;;;;;24.43;10.70;;;;;;;2.11;99.42;100607.59;4214761;28;23532;-71
2023/10/17 00:37:30;;;;;;;22.43;10.53;;;;;;;2.16;99.50;100609.03;4222411;28;23439;-70
2023/10/17 00:39:59;;;;;;;26.70;10.63;;;;;;;2.17;99.00;100607.25;4214374;28;20283;-70
2023/10/17 00:42:29;;;;;;;30.70;11.33;;;;;;;2.13;99.19;100617.25;4213991;28;20238;-69
2023/10/17 00:44:58;;;;;;;37.33;10.70;;;;;;;2.11;99.15;100605.78;4219463;28;20721;-69
2023/10/17 00:47:26;;;;;;;30.80;10.80;;;;;;;2.06;99.39;100607.88;4219246;28;20239;-68
2023/10/17 00:49:53;;;;;;;32.43;11.50;;;;;;;2.00;99.87;100617.09;4222128;28;20271;-69
2023/10/17 00:52:25;;;;;;;28.57;12.33;;;;;;;1.92;100.00;100614.00;4227862;28;20737;-73
2023/10/17 00:54:56;;;;;;;28.43;12.40;;;;;;;1.97;100.00;100609.25;4219464;28;23176;-70
2023/10/17 00:57:26;;;;;;;28.20;13.07;;;;;;;1.89;100.00;100608.81;4219689;28;20238;-71
2023/10/17 01:00:10;;;;;;;29.73;12.37;;;;;;;1.84;100.00;100609.09;4214504;28;20302;-71
2023/10/17 01:02:44;;;;;;;30.43;11.87;;;;;;;1.84;100.00;100616.22;4217787;28;21072;-70
2023/10/17 01:05:12;;;;;;;23.03;11.90;;;;;;;1.84;100.00;100610.88;4218983;28;20298;-68
2023/10/17 01:07:40;;;;;;;33.40;11.63;;;;;;;1.82;100.00;100612.78;4218874;28;20231;-70
2023/10/17 01:10:10;;;;;;;27.63;12.23;;;;;;;1.82;100.00;100607.44;4221416;28;22615;-72
2023/10/17 01:12:54;;;;;;;26.93;12.23;;;;;;;1.74;100.00;100606.06;4218356;28;20346;-71
2023/10/17 01:15:23;;;;;;;25.47;11.50;;;;;;;1.72;100.00;100609.78;4222696;28;20396;-70
2023/10/17 01:17:54;;;;;;;33.10;11.67;;;;;;;1.74;100.00;100616.75;4225626;28;20244;-70
2023/10/17 01:20:21;;;;;;;31.77;12.60;;;;;;;1.71;100.00;100603.59;4216872;28;21604;-70
2023/10/17 01:22:48;;;;;;;26.27;12.17;;;;;;;1.71;100.00;100605.38;4216064;28;21671;-69
2023/10/17 01:25:24;;;;;;;35.17;12.73;;;;;;;1.75;100.00;100612.28;4220467;28;20232;-69
2023/10/17 01:27:55;;;;;;;24.73;11.60;;;;;;;1.77;100.00;100609.50;4224009;28;20232;-70
2023/10/17 01:30:22;;;;;;;31.57;12.23;;;;;;;1.83;100.00;100619.84;4201649;28;20228;-70
2023/10/17 01:32:50;;;;;;;26.67;12.20;;;;;;;1.84;100.00;100614.44;4216831;28;20291;-70
2023/10/17 01:35:19;;;;;;;27.00;11.90;;;;;;;1.81;100.00;100611.94;4221982;28;20235;-72
2023/10/17 01:37:47;;;;;;;27.70;11.87;;;;;;;1.81;100.00;100611.94;4219401;28;20347;-74
2023/10/17 01:40:22;;;;;;;26.30;11.33;;;;;;;1.90;100.00;100610.53;4225890;28;20470;-71
2023/10/17 01:42:51;;;;;;;29.10;11.70;;;;;;;1.85;100.00;100612.63;4214523;28;20244;-69
2023/10/17 01:45:21;;;;;;;29.57;11.73;;;;;;;1.81;100.00;100611.94;4227367;28;20658;-73
2023/10/17 01:47:48;;;;;;;27.60;11.30;;;;;;;1.78;100.00;100616.59;4221154;28;20243;-70
2023/10/17 01:50:14;;;;;;;19.47;10.53;;;;;;;1.78;100.00;100617.44;4217502;28;21356;-68
2023/10/17 01:52:42;;;;;;;29.50;12.67;;;;;;;1.74;100.00;100618.56;4218244;28;22640;-70
2023/10/17 01:55:12;;;;;;;29.40;11.17;;;;;;;1.80;100.00;100626.22;4218062;28;20277;-69
2023/10/17 01:57:44;;;;;;;27.50;11.83;;;;;;;1.89;100.00;100635.50;4225514;28;20753;-71
2023/10/17 02:00:36;;;;;;;25.43;10.93;;;;;;;1.95;100.00;100628.97;4208597;28;21153;-70
2023/10/17 02:03:05;;;;;;;30.03;11.63;;;;;;;2.08;100.00;100623.78;4223285;28;20339;-69
2023/10/17 02:05:35;;;;;;;27.20;11.67;;;;;;;2.11;100.00;100629.81;4216925;28;22846;-71
2023/10/17 02:08:02;;;;;;;26.00;11.40;;;;;;;2.15;99.75;100625.16;4228810;28;22622;-69
2023/10/17 02:10:29;;;;;;;29.23;12.03;;;;;;;2.09;99.46;100630.84;4217870;28;20428;-73
2023/10/17 02:12:57;;;;;;;26.03;11.30;;;;;;;1.93;100.00;100630.88;4219262;28;20236;-72
2023/10/17 02:15:24;;;;;;;25.53;10.93;;;;;;;1.92;100.00;100630.00;4216860;28;20231;-69
2023/10/17 02:17:52;;;;;;;32.17;12.60;;;;;;;1.83;100.00;100630.53;4214676;28;20237;-70
2023/10/17 02:20:47;;;;;;;33.57;12.10;;;;;;;1.84;100.00;100637.59;4217831;28;20242;-70
2023/10/17 02:23:19;;;;;;;25.37;11.13;;;;;;;1.87;100.00;100630.25;4215090;28;20903;-69
2023/10/17 02:25:46;;;;;;;32.03;11.43;;;;;;;1.87;100.00;100632.94;4220657;28;20430;-72
2023/10/17 02:28:13;;;;;;;27.73;11.20;;;;;;;1.86;100.00;100630.34;4198378;28;20240;-68
2023/10/17 02:30:39;;;;;;;23.20;11.33;;;;;;;1.91;100.00;100628.28;4225033;28;20233;-71
2023/10/17 02:33:17;;;;;;;32.67;12.30;;;;;;;1.79;100.00;100632.50;4209452;28;20263;-69
2023/10/17 02:36:04;;;;;;;35.03;11.77;;;;;;;1.71;100.00;100635.63;4216942;28;20298;-73
2023/10/17 02:38:31;;;;;;;27.17;11.57;;;;;;;1.77;100.00;100638.88;4227023;28;20270;-74
2023/10/17 02:40:57;;;;;;;26.27;10.97;;;;;;;1.72;100.00;100641.81;4223572;28;25311;-70
2023/10/17 02:43:24;;;;;;;31.47;11.63;;;;;;;1.76;100.00;100635.38;4215321;28;22655;-68
2023/10/17 02:45:53;;;;;;;38.77;11.73;;;;;;;1.74;100.00;100634.56;4220240;28;21657;-70
2023/10/17 02:48:23;;;;;;;29.80;11.70;;;;;;;1.70;100.00;100638.38;4224641;28;20628;-70
2023/10/17 02:51:02;;;;;;;27.23;11.63;;;;;;;1.73;100.00;100635.53;4200718;28;20278;-69
2023/10/17 02:53:34;;;;;;;30.57;12.10;;;;;;;1.68;100.00;100645.59;4217858;28;20310;-73
2023/10/17 02:56:19;;;;;;;29.47;11.60;;;;;;;1.63;100.00;100637.84;4230340;28;20247;-72
2023/10/17 02:59:06;;;;;;;32.13;13.07;;;;;;;1.61;100.00;100642.41;4214885;28;20529;-69
2023/10/17 03:01:36;;;;;;;30.63;12.93;;;;;;;1.61;100.00;100642.41;4204204;28;20253;-70
2023/10/17 03:04:08;;;;;;;30.80;13.90;;;;;;;1.53;100.00;100642.84;4214171;28;20323;-70
2023/10/17 03:06:40;;;;;;;29.97;13.30;;;;;;;1.55;100.00;100643.59;4208623;28;20294;-69
2023/10/17 03:17:15;;;;;;;35.47;15.17;;;;;;;1.30;100.00;100657.41;4209316;28;21786;-70
2023/10/17 03:19:42;;;;;;;30.47;14.17;;;;;;;1.33;100.00;100653.72;4206994;28;20228;-69
2023/10/17 03:22:19;;;;;;;35.73;15.13;;;;;;;1.22;100.00;100651.63;4227263;28;20335;-71
2023/10/17 03:24:46;;;;;;;36.00;15.20;;;;;;;1.17;100.00;100656.34;4211762;28;20239;-68
2023/10/17 03:29:53;;;;;;;37.07;15.10;;;;;;;1.11;100.00;100654.84;4222352;28;22971;-70
2023/10/17 03:32:22;;;;;;;38.53;16.73;;;;;;;1.04;100.00;100651.66;4217125;28;21422;-70
2023/10/17 03:34:58;;;;;;;36.17;15.40;;;;;;;0.98;100.00;100649.34;4209898;28;20616;-70
2023/10/17 03:39:52;;;;;;;36.20;15.53;;;;;;;0.99;100.00;100660.84;4208384;28;20296;-71
2023/10/17 03:45:13;;;;;;;35.40;15.67;;;;;;;1.05;100.00;100665.84;4220808;28;23576;-68
2023/10/17 03:47:41;;;;;;;41.77;16.40;;;;;;;1.08;100.00;100657.69;4219336;28;22257;-69
2023/10/17 03:50:08;;;;;;;35.07;16.73;;;;;;;1.02;100.00;100663.38;4218419;28;21774;-68
2023/10/17 03:52:36;;;;;;;41.27;17.07;;;;;;;1.04;100.00;100659.66;4226123;28;21714;-70
2023/10/17 03:55:09;;;;;;;36.33;15.80;;;;;;;0.95;100.00;100660.16;4218667;28;20294;-71
2023/10/17 03:57:52;;;;;;;39.37;15.70;;;;;;;0.92;100.00;100663.84;4220821;28;20307;-71
2023/10/17 04:00:37;;;;;;;36.30;15.97;;;;;;;0.83;100.00;100655.47;4226209;28;20329;-71
2023/10/17 04:03:09;;;;;;;39.73;17.07;;;;;;;0.82;100.00;100656.41;4221265;28;22733;-73
2023/10/17 04:05:38;;;;;;;37.33;16.53;;;;;;;0.81;100.00;100662.66;4214148;28;20385;-69
2023/10/17 04:08:05;;;;;;;38.50;16.63;;;;;;;0.86;100.00;100660.63;4216747;28;20242;-70
2023/10/17 04:10:49;;;;;;;38.23;17.73;;;;;;;0.86;100.00;100668.59;4225618;28;22221;-70
2023/10/17 04:13:22;;;;;;;38.90;17.67;;;;;;;0.84;100.00;100659.81;4215781;28;20253;-72
2023/10/17 04:15:49;;;;;;;40.73;17.60;;;;;;;0.81;100.00;100660.84;4207779;28;20229;-71
2023/10/17 04:18:17;;;;;;;48.40;18.70;;;;;;;0.90;100.00;100656.88;4225125;28;20232;-71
2023/10/17 04:20:46;;;;;;;36.60;17.07;;;;;;;0.86;100.00;100672.16;4223644;28;20243;-71
2023/10/17 04:23:21;;;;;;;39.30;17.63;;;;;;;0.92;100.00;100663.84;4215170;28;20307;-69
2023/10/17 04:25:54;;;;;;;35.43;17.83;;;;;;;0.94;100.00;100666.41;4222173;28;21732;-71
2023/10/17 04:28:26;;;;;;;41.20;17.10;;;;;;;0.92;100.00;100665.63;4216307;28;20240;-71
2023/10/17 04:30:56;;;;;;;38.23;17.37;;;;;;;0.91;100.00;100675.44;4216318;28;20231;-70
2023/10/17 04:33:28;;;;;;;42.77;16.53;;;;;;;0.90;100.00;100664.88;4217069;28;20349;-69
2023/10/17 04:35:55;;;;;;;37.37;17.03;;;;;;;0.95;100.00;100662.81;4218933;28;23597;-72
2023/10/17 04:43:54;;;;;;;42.33;16.70;;;;;;;1.07;100.00;100675.47;4222057;28;21389;-72
2023/10/17 04:46:34;;;;;;;36.83;17.00;;;;;;;1.14;100.00;100688.50;4232209;28;20329;-72
2023/10/17 04:49:07;;;;;;;35.87;15.40;;;;;;;1.22;100.00;100688.94;4230508;28;20379;-72
2023/10/17 04:51:38;;;;;;;41.20;16.60;;;;;;;1.22;100.00;100687.16;4226271;28;20670;-71
2023/10/17 04:57:00;;;;;;;42.47;15.37;;;;;;;1.24;100.00;100681.75;4221187;28;20231;-71
2023/10/17 06:19:21;;;;;;;45.37;19.17;;;;;;;1.55;100.00;100763.66;4249806;28;20228;-72
2023/10/17 06:28:13;;;;;;;45.60;20.10;;;;;;;1.82;100.00;100771.16;4283962;28;21350;-74
2023/10/17 06:35:34;;;;;;;49.30;21.13;;;;;;;1.99;100.00;100777.38;4277625;28;20261;-73
2023/10/17 06:38:01;;;;;;;53.37;21.67;;;;;;;2.06;100.00;100776.94;4223119;28;25685;-71
2023/10/17 06:40:37;;;;;;;47.30;21.73;;;;;;;2.15;100.00;100775.56;4225164;28;20411;-73
2023/10/17 06:43:13;;;;;;;44.60;21.10;;;;;;;2.27;100.00;100779.38;4244239;28;20238;-70
2023/10/17 06:45:54;;;;;;;48.70;22.73;;;;;;;2.49;100.00;100786.22;4245146;28;20234;-71
2023/10/17 06:48:32;;;;;;;49.37;21.70;;;;;;;2.56;100.00;100786.69;4216694;28;20232;-72
2023/10/17 06:53:52;;;;;;;42.03;21.07;;;;;;;2.61;100.00;100772.13;4231108;28;20373;-72
2023/10/17 06:56:18;;;;;;;45.90;21.67;;;;;;;2.65;100.00;100784.34;4226639;28;20227;-72
2023/10/17 06:58:47;;;;;;;44.07;21.00;;;;;;;2.87;100.00;100777.78;4222016;28;20235;-71
2023/10/17 07:01:19;;;;;;;46.17;21.13;;;;;;;3.07;100.00;100779.28;4232949;28;20244;-73
2023/10/17 07:03:46;;;;;;;49.97;19.37;;;;;;;3.25;100.00;100788.03;4223134;28;20233;-75
2023/10/17 07:06:13;;;;;;;43.83;19.77;;;;;;;3.19;99.72;100791.06;4223095;28;20291;-71
2023/10/17 07:08:42;;;;;;;45.30;18.93;;;;;;;3.26;99.67;100781.72;4238497;28;22900;-72
2023/10/17 07:11:09;;;;;;;37.63;17.97;;;;;;;3.37;98.95;100783.75;4222133;28;20646;-75
2023/10/17 07:16:41;;;;;;;39.43;17.77;;;;;;;3.46;98.43;100783.19;4238015;28;20266;-70
2023/10/17 07:22:05;;;;;;;43.20;17.87;;;;;;;3.70;98.03;100779.13;4230656;28;20633;-71
2023/10/17 07:24:35;;;;;;;33.80;15.33;;;;;;;3.71;97.41;100787.06;4226278;28;22085;-74
2023/10/17 07:27:03;;;;;;;31.50;15.57;;;;;;;3.92;98.04;100776.84;4225473;28;20236;-69
2023/10/17 07:29:33;;;;;;;34.97;16.87;;;;;;;4.12;96.77;100782.75;4223344;28;20299;-70
2023/10/17 07:32:09;;;;;;;36.43;15.87;;;;;;;4.11;96.13;100781.91;4217659;28;20323;-70
2023/10/17 07:34:37;;;;;;;32.80;15.40;;;;;;;4.56;94.96;100787.06;4233940;28;22410;-69
2023/10/17 07:42:56;;;;;;;24.53;11.07;;;;;;;8.46;76.19;100778.56;4200384;28;20237;-71
2023/10/17 07:45:22;;;;;;;22.47;9.90;;;;;;;9.67;70.86;100783.72;4196864;28;22911;-69
2023/10/17 07:47:52;;;;;;;18.00;8.80;;;;;;;12.59;62.11;100784.09;4225328;28;20547;-69
2023/10/17 07:50:20;;;;;;;21.50;8.33;;;;;;;13.13;55.60;100776.84;4218776;28;21593;-72
2023/10/17 07:52:50;;;;;;;18.00;8.17;;;;;;;12.98;55.74;100783.81;4278572;28;20231;-76
2023/10/17 07:55:19;;;;;;;19.90;8.20;;;;;;;15.09;50.91;100795.44;4295320;28;22165;-72
2023/10/17 07:57:52;;;;;;;15.93;7.43;;;;;;;16.09;47.79;100786.19;4314510;28;20273;-70
2023/10/17 08:00:36;;;;;;;14.63;7.17;;;;;;;17.88;43.64;100771.66;4295008;28;23774;-73
2023/10/17 08:03:14;;;;;;;16.67;7.10;;;;;;;20.33;37.26;100780.13;4263208;28;20237;-70
2023/10/17 08:05:45;;;;;;;18.13;8.27;;;;;;;14.77;48.51;100788.88;4238738;28;20234;-71
2023/10/17 08:08:20;;;;;;;14.97;7.70;;;;;;;13.67;51.48;100788.66;4273239;28;24097;-72
2023/10/17 08:10:47;;;;;;;14.67;7.97;;;;;;;14.38;50.40;100787.53;4270740;28;20433;-72
2023/10/17 08:13:14;;;;;;;15.93;7.90;;;;;;;14.81;49.54;100793.00;4256418;28;22229;-72
2023/10/17 08:15:53;;;;;;;17.33;7.73;;;;;;;14.48;50.87;100801.03;4269656;28;20364;-73
2023/10/17 08:18:28;;;;;;;17.37;8.03;;;;;;;15.39;47.98;100784.03;4258400;28;20225;-69
2023/10/17 08:23:46;;;;;;;14.77;7.27;;;;;;;19.22;39.61;100789.84;4250333;28;20260;-66
2023/10/17 08:26:17;;;;;;;16.90;7.23;;;;;;;18.72;39.48;100794.34;4217065;28;20230;-68
2023/10/17 08:31:22;;;;;;;16.33;8.10;;;;;;;16.97;42.99;100794.34;4222973;28;20988;-71
2023/10/17 08:34:03;;;;;;;15.43;7.90;;;;;;;16.56;44.30;100800.00;4222994;28;20272;-73
2023/10/17 08:42:14;;;;;;;15.53;7.13;;;;;;;15.39;47.56;100789.50;4222262;28;22072;-72
2023/10/17 08:44:43;;;;;;;18.87;7.40;;;;;;;15.20;46.88;100794.25;4221451;28;20675;-69
2023/10/17 08:47:19;;;;;;;17.87;6.67;;;;;;;18.19;41.20;100787.13;4245261;28;20239;-71
2023/10/17 08:49:48;;;;;;;19.27;8.10;;;;;;;16.58;43.71;100785.13;4218419;28;20611;-69
2023/10/17 08:52:23;;;;;;;18.77;8.37;;;;;;;14.42;49.46;100791.66;4240391;28;20235;-69
2023/10/17 08:54:51;;;;;;;13.57;7.97;;;;;;;14.54;49.81;100804.97;4225806;28;20250;-72
2023/10/17 08:57:19;;;;;;;15.80;6.90;;;;;;;12.37;55.08;100797.06;4235340;28;20236;-73
2023/10/17 09:02:29;;;;;;;16.90;8.13;;;;;;;10.42;63.19;100802.47;4229243;28;20305;-75
2023/10/17 09:05:06;;;;;;;18.50;7.97;;;;;;;11.17;61.58;100796.59;4242544;28;20241;-75
2023/10/17 09:07:46;;;;;;;22.63;7.90;;;;;;;11.14;62.02;100801.47;4238111;28;20510;-73
2023/10/17 09:10:17;;;;;;;17.10;7.23;;;;;;;10.54;63.41;100794.22;4239003;28;20231;-76
2023/10/17 09:12:43;;;;;;;20.57;6.77;;;;;;;10.34;64.18;100798.69;4215924;28;20277;-73
2023/10/17 09:15:48;;;;;;;15.33;7.47;;;;;;;10.17;64.47;100795.66;4219393;28;20231;-73
2023/10/17 09:18:22;;;;;;;18.13;6.40;;;;;;;9.84;65.76;100792.19;4235183;28;21744;-75
2023/10/17 09:20:50;;;;;;;16.20;6.70;;;;;;;10.30;64.89;100798.13;4234815;28;20302;-71
2023/10/17 09:23:24;;;;;;;15.47;7.03;;;;;;;10.76;62.21;100796.69;4230514;28;20237;-71
2023/10/17 09:26:12;;;;;;;15.67;6.70;;;;;;;11.28;62.43;100790.19;4223515;28;20229;-75
2023/10/17 09:28:39;;;;;;;13.87;6.07;;;;;;;10.61;63.99;100798.09;4241555;28;22418;-75
2023/10/17 09:31:12;;;;;;;15.07;5.83;;;;;;;9.81;66.02;100797.91;4237426;28;20266;-76
2023/10/17 09:33:43;;;;;;;15.80;6.63;;;;;;;9.63;66.62;100793.09;4240420;28;20825;-73
2023/10/17 09:36:12;;;;;;;19.23;6.60;;;;;;;10.02;65.61;100800.53;4223409;28;20239;-75
2023/10/17 09:38:46;;;;;;;14.03;6.10;;;;;;;10.25;65.74;100803.94;4229152;28;22164;-74
2023/10/17 09:41:17;;;;;;;20.37;6.40;;;;;;;9.89;66.50;100802.63;4242297;28;20610;-74
2023/10/17 09:43:49;;;;;;;22.27;6.77;;;;;;;9.74;66.33;100808.38;4238982;28;20239;-75
2023/10/17 09:46:26;;;;;;;15.43;6.13;;;;;;;9.56;66.65;100791.91;4246905;28;20323;-74
2023/10/17 09:49:00;;;;;;;20.20;6.47;;;;;;;9.51;67.90;100796.84;4245924;28;20284;-73
2023/10/17 09:51:33;;;;;;;13.57;6.07;;;;;;;9.54;66.38;100799.28;4218136;28;20440;-75
2023/10/17 09:54:04;;;;;;;16.67;5.63;;;;;;;9.28;67.29;100794.28;4243284;28;20372;-72
2023/10/17 09:56:36;;;;;;;11.73;5.27;;;;;;;9.49;66.84;100796.13;4275960;28;21778;-74
2023/10/17 09:59:07;;;;;;;18.10;5.83;;;;;;;9.38;67.24;100794.34;4259509;28;20323;-73
2023/10/17 10:01:35;;;;;;;12.13;5.00;;;;;;;9.51;66.86;100799.56;4234156;28;20233;-73
2023/10/17 10:04:03;;;;;;;17.23;5.63;;;;;;;9.39;67.68;100782.53;4231701;28;20863;-72
2023/10/17 10:06:32;;;;;;;16.20;5.70;;;;;;;9.70;65.96;100784.44;4225084;28;20242;-72
2023/10/17 10:09:09;;;;;;;13.03;5.10;;;;;;;9.72;66.22;100791.41;4229340;28;20239;-73
2023/10/17 10:11:48;;;;;;;15.47;5.57;;;;;;;9.68;65.54;100782.72;4226237;28;20250;-72
2023/10/17 10:14:33;;;;;;;12.77;5.07;;;;;;;9.79;65.91;100780.94;4247829;28;20241;-73
2023/10/17 10:17:03;;;;;;;12.00;5.17;;;;;;;9.64;65.67;100780.41;4227273;28;20242;-75
2023/10/17 10:19:42;;;;;;;15.50;5.50;;;;;;;9.70;65.76;100781.72;4273522;28;20968;-72
2023/10/17 10:22:13;;;;;;;10.43;4.73;;;;;;;9.89;63.80;100767.47;4230263;28;20236;-73
2023/10/17 10:24:42;;;;;;;11.00;4.03;;;;;;;10.12;63.09;100769.00;4243768;28;21750;-71
2023/10/17 10:27:14;;;;;;;10.17;4.07;;;;;;;10.08;61.98;100769.41;4249207;28;20240;-72
2023/10/17 10:29:42;;;;;;;11.37;4.03;;;;;;;9.54;64.17;100772.25;4221595;28;20277;-72
2023/10/17 10:32:31;;;;;;;13.30;4.63;;;;;;;9.51;64.77;100767.13;4245262;28;20282;-73
2023/10/17 10:34:58;;;;;;;10.87;3.93;;;;;;;9.56;63.58;100755.88;4234556;28;20235;-72
2023/10/17 10:37:25;;;;;;;11.47;3.83;;;;;;;9.94;63.12;100759.78;4243064;28;25570;-70
2023/10/17 10:40:22;;;;;;;7.93;3.33;;;;;;;9.49;63.48;100752.88;4212887;28;20240;-70
2023/10/17 10:42:58;;;;;;;11.80;4.50;;;;;;;9.68;63.06;100760.25;4231014;28;20760;-70
2023/10/17 10:45:47;;;;;;;12.23;3.63;;;;;;;10.14;62.13;100749.91;4221003;28;20232;-71
2023/10/17 10:48:17;;;;;;;12.33;3.50;;;;;;;10.25;60.06;100739.00;4226705;28;25702;-70
2023/10/17 10:50:47;;;;;;;7.50;2.83;;;;;;;10.07;60.63;100744.22;4235995;28;22394;-72
2023/10/17 10:53:33;;;;;;;11.37;3.53;;;;;;;10.23;60.71;100737.44;4221634;28;20231;-72
2023/10/17 10:56:02;;;;;;;8.77;3.00;;;;;;;10.37;59.71;100745.19;4233071;28;20919;-71
2023/10/17 10:58:35;;;;;;;8.43;3.00;;;;;;;10.40;58.14;100744.06;4222287;28;20226;-76
2023/10/17 11:01:07;;;;;;;7.67;3.47;;;;;;;10.36;58.79;100727.22;4220425;28;20229;-73
2023/10/17 11:03:42;;;;;;;10.73;3.10;;;;;;;10.56;58.12;100729.97;4213991;28;23343;-71
2023/10/17 11:06:09;;;;;;;10.73;3.40;;;;;;;10.33;58.29;100735.59;4216320;28;20276;-72
2023/10/17 11:08:39;;;;;;;7.47;2.70;;;;;;;10.25;58.56;100739.00;4254606;28;20275;-72
2023/10/17 11:11:06;;;;;;;9.60;3.37;;;;;;;10.45;58.81;100730.94;4221883;28;20232;-72
2023/10/17 11:13:34;;;;;;;10.87;3.23;;;;;;;10.69;57.35;100735.97;4265715;28;20255;-74
2023/10/17 11:16:05;;;;;;;7.43;2.50;;;;;;;10.45;56.78;100729.13;4257668;28;20240;-72
2023/10/17 11:18:39;;;;;;;8.63;2.90;;;;;;;10.41;57.08;100718.72;4254002;28;21080;-73
2023/10/17 11:21:09;;;;;;;4.57;2.10;;;;;;;10.72;54.86;100715.91;4207041;28;20241;-73
2023/10/17 11:23:53;;;;;;;7.37;2.40;;;;;;;10.72;56.38;100711.31;4240585;28;20232;-73
2023/10/17 11:26:27;;;;;;;6.47;2.60;;;;;;;11.10;56.20;100703.34;4250177;28;20260;-76
2023/10/17 11:28:57;;;;;;;10.30;3.00;;;;;;;11.07;55.84;100712.59;4291620;28;20231;-74
2023/10/17 11:31:25;;;;;;;8.00;3.00;;;;;;;10.96;56.05;100695.63;4271040;28;20278;-75
2023/10/17 11:34:04;;;;;;;7.07;2.80;;;;;;;11.10;55.04;100701.47;4256530;28;21661;-74
2023/10/17 11:36:52;;;;;;;6.60;2.60;;;;;;;10.57;55.97;100705.50;4263856;28;20285;-74
2023/10/17 11:39:19;;;;;;;10.20;2.90;;;;;;;10.78;56.55;100707.19;4258098;28;20238;-75
2023/10/17 11:41:53;;;;;;;9.27;2.53;;;;;;;10.76;54.93;100709.19;4235425;28;20318;-74
2023/10/17 11:44:24;;;;;;;6.27;1.80;;;;;;;10.94;53.31;100706.63;4248562;28;22415;-73
2023/10/17 11:47:03;;;;;;;8.57;2.13;;;;;;;10.98;53.12;100699.06;4265408;28;23538;-75
2023/10/17 11:49:35;;;;;;;6.30;2.10;;;;;;;10.87;52.99;100692.81;4294145;28;20310;-74
2023/10/17 11:52:09;;;;;;;4.70;2.07;;;;;;;11.03;54.13;100703.06;4263696;28;20280;-75
2023/10/17 11:55:04;;;;;;;8.23;2.50;;;;;;;11.05;54.09;100695.66;4248541;28;20640;-74
2023/10/17 11:57:34;;;;;;;14.87;2.70;;;;;;;11.13;54.85;100689.50;4267106;28;21075;-75
2023/10/17 12:00:19;;;;;;;7.03;2.00;;;;;;;11.56;52.81;100690.81;4262037;28;21720;-75
2023/10/17 12:02:48;;;;;;;5.03;2.10;;;;;;;11.86;51.65;100688.00;4232161;28;23521;-75
2023/10/17 12:05:19;;;;;;;6.63;2.17;;;;;;;11.97;50.45;100682.41;4253673;28;20238;-71
2023/10/17 12:07:57;;;;;;;4.77;1.80;;;;;;;12.31;48.87;100687.22;4231807;28;20239;-70
2023/10/17 12:10:24;;;;;;;6.23;1.77;;;;;;;11.24;51.93;100683.94;4238458;28;21106;-73
2023/10/17 12:12:52;;;;;;;10.77;2.67;;;;;;;11.37;53.49;100678.16;4240718;28;20227;-72
2023/10/17 12:15:23;;;;;;;8.30;2.30;;;;;;;11.73;56.03;100682.91;4252436;28;20248;-55
2023/10/17 12:17:50;;;;;;;6.70;2.00;;;;;;;11.76;52.81;100671.78;4269662;28;20300;-73
2023/10/17 12:20:19;;;;;;;4.50;1.70;;;;;;;11.96;51.60;100682.53;4236572;28;20348;-69
2023/10/17 12:22:45;;;;;;;4.77;1.77;;;;;;;11.54;52.39;100676.56;4242276;28;20244;-57
2023/10/17 12:25:16;;;;;;;5.33;2.13;;;;;;;11.17;53.31;100671.09;4213195;28;20234;-77
2023/10/17 12:27:49;;;;;;;6.47;1.80;;;;;;;11.03;52.82;100665.13;4227761;28;20338;-71
2023/10/17 12:30:22;;;;;;;9.20;1.80;;;;;;;11.06;52.62;100664.84;4205902;28;20678;-74
2023/10/17 12:32:49;;;;;;;5.33;1.50;;;;;;;11.24;51.53;100661.38;4206098;28;25785;-74
2023/10/17 12:35:16;;;;;;;5.77;1.60;;;;;;;11.21;51.66;100656.28;4211717;28;25022;-77
2023/10/17 12:37:43;;;;;;;4.97;1.33;;;;;;;11.02;51.96;100660.72;4216508;28;20256;-74
2023/10/17 12:40:21;;;;;;;3.97;1.60;;;;;;;11.20;51.21;100660.81;4207030;28;20255;-75
2023/10/17 12:42:50;;;;;;;8.50;1.73;;;;;;;11.74;50.54;100658.34;4213935;28;20642;-74
2023/10/17 12:45:19;;;;;;;6.50;1.40;;;;;;;11.81;50.04;100655.06;4214659;28;20407;-75
2023/10/17 12:47:47;;;;;;;9.80;1.87;;;;;;;11.81;50.20;100657.75;4196153;28;20229;-74
2023/10/17 12:50:21;;;;;;;3.87;1.60;;;;;;;11.54;49.88;100640.44;4209370;28;20475;-75
2023/10/17 12:52:50;;;;;;;9.57;1.30;;;;;;;11.77;48.42;100640.06;4218255;28;21173;-76
2023/10/17 12:55:19;;;;;;;8.60;1.67;;;;;;;11.88;47.43;100639.88;4216485;28;20299;-75
2023/10/17 12:57:46;;;;;;;5.43;1.63;;;;;;;11.83;47.72;100640.34;4225048;28;21825;-76
2023/10/17 13:00:14;;;;;;;9.03;2.13;;;;;;;11.27;50.30;100636.72;4220293;28;20252;-74
2023/10/17 13:02:42;;;;;;;6.77;1.53;;;;;;;11.24;49.69;100635.16;4223812;28;25555;-76
2023/10/17 13:05:11;;;;;;;3.53;1.30;;;;;;;11.45;50.19;100646.75;4222799;28;20228;-76
2023/10/17 13:07:40;;;;;;;5.50;1.70;;;;;;;11.17;50.83;100644.88;4237677;28;20240;-74
2023/10/17 13:10:08;;;;;;;5.53;1.70;;;;;;;10.89;51.98;100633.91;4223033;28;20243;-74
2023/10/17 13:12:35;;;;;;;6.20;2.00;;;;;;;10.46;53.03;100632.53;4220711;28;22631;-75
2023/10/17 13:15:06;;;;;;;5.17;1.63;;;;;;;11.07;50.57;100633.19;4215119;28;21196;-74
2023/10/17 13:17:33;;;;;;;5.07;1.73;;;;;;;11.26;50.30;100635.84;4225484;28;22312;-75
2023/10/17 13:20:07;;;;;;;6.63;1.87;;;;;;;11.09;51.38;100633.91;4212325;28;20540;-75
2023/10/17 13:22:42;;;;;;;4.53;1.80;;;;;;;10.89;51.45;100624.94;4221492;28;20273;-76
2023/10/17 13:25:11;;;;;;;9.17;2.60;;;;;;;10.93;50.59;100621.81;4215236;28;20299;-75
2023/10/17 13:27:38;;;;;;;7.30;1.90;;;;;;;10.85;51.04;100626.22;4220820;28;20686;-74
2023/10/17 13:30:06;;;;;;;5.13;1.30;;;;;;;11.00;50.10;100624.78;4226364;28;20428;-76
2023/10/17 13:32:33;;;;;;;5.43;1.50;;;;;;;10.78;50.40;100618.69;4215017;28;20354;-75
2023/10/17 13:35:00;;;;;;;5.07;1.47;;;;;;;10.58;51.39;100614.28;4249493;28;20749;-74
2023/10/17 13:37:30;;;;;;;3.93;1.30;;;;;;;10.52;51.79;100615.72;4241866;28;20597;-78
2023/10/17 13:39:56;;;;;;;4.13;1.60;;;;;;;10.75;50.77;100607.28;4232341;28;20386;-77
2023/10/17 13:42:23;;;;;;;6.03;1.50;;;;;;;10.58;51.59;100603.47;4252252;28;22499;-81
2023/10/17 13:44:51;;;;;;;4.73;1.20;;;;;;;10.48;50.87;100606.19;4234729;28;20229;-78
2023/10/17 13:47:20;;;;;;;4.20;1.30;;;;;;;10.39;50.70;100607.88;4207238;28;23032;-73
2023/10/17 13:49:48;;;;;;;6.27;1.40;;;;;;;10.55;51.51;100612.72;4232392;28;22122;-76
2023/10/17 13:52:17;;;;;;;7.27;2.00;;;;;;;10.66;51.71;100609.00;4231248;28;21611;-78
2023/10/17 13:54:45;;;;;;;9.83;2.27;;;;;;;10.73;51.96;100609.28;4214525;28;20556;-78
2023/10/17 13:57:12;;;;;;;5.70;2.07;;;;;;;10.60;51.71;100591.50;4213662;28;20243;-78
2023/10/17 13:59:39;;;;;;;8.17;1.53;;;;;;;10.70;51.43;100599.59;4220208;28;20664;-77
2023/10/17 14:02:06;;;;;;;7.47;1.37;;;;;;;10.56;52.08;100592.78;4233485;28;22924;-77
2023/10/17 14:04:36;;;;;;;6.33;1.67;;;;;;;10.49;52.15;100590.78;4221119;28;20223;-78